createdAt,value
2018-03-11T00:30:50.665Z,12.90
2018-03-11T00:36:18.648Z,12.80
2018-03-11T00:46:56.648Z,12.70
2018-03-11T00:49:47.008Z,12.70
2018-03-11T00:52:41.718Z,12.50
2018-03-11T00:55:41.665Z,12.10
2018-03-11T00:58:30.553Z,12.30
2018-03-11T01:01:16.638Z,12.30
2018-03-11T01:03:56.614Z,12.20
2018-03-11T01:42:36.310Z,11.70
2018-03-11T01:45:26.834Z,11.60
2018-03-11T01:48:32.864Z,11.60
2018-03-11T01:51:16.264Z,11.60
2018-03-11T01:54:02.434Z,11.60
2018-03-11T01:56:42.530Z,11.50
2018-03-11T01:59:39.458Z,11.50
2018-03-11T02:02:22.518Z,11.60
2018-03-11T02:15:28.113Z,11.60
2018-03-11T02:18:14.214Z,11.70
2018-03-11T02:21:06.563Z,11.70
2018-03-11T02:23:44.152Z,11.60
2018-03-11T02:27:53.374Z,11.60
2018-03-11T02:30:36.016Z,11.60
2018-03-11T02:33:38.808Z,11.60
2018-03-11T02:36:34.042Z,11.50
2018-03-11T02:39:21.734Z,11.50
2018-03-11T02:45:04.042Z,11.40
2018-03-11T02:47:44.418Z,11.40
2018-03-11T02:50:28.023Z,11.40
2018-03-11T02:53:14.895Z,11.40
2018-03-11T02:56:06.962Z,11.40
2018-03-11T02:58:47.076Z,11.40
2018-03-11T03:04:40.350Z,11.40
2018-03-11T03:07:30.242Z,11.30
2018-03-11T03:10:14.664Z,11.40
2018-03-11T03:15:51.023Z,11.40
2018-03-11T03:18:37.049Z,11.40
2018-03-11T03:21:24.238Z,11.40
2018-03-11T03:24:19.404Z,11.30
2018-03-11T03:27:08.233Z,11.30
2018-03-11T03:32:37.255Z,11.20
2018-03-11T03:35:25.407Z,11.30
2018-03-11T03:38:16.700Z,11.20
2018-03-11T03:41:11.314Z,11.20
2018-03-11T03:43:52.403Z,11.20
2018-03-11T03:49:29.372Z,11.10
2018-03-11T03:52:30.856Z,11.10
2018-03-11T03:55:17.943Z,11.10
2018-03-11T03:57:58.954Z,11.10
2018-03-11T04:00:44.914Z,11.00
2018-03-11T04:03:35.935Z,11.00
2018-03-11T04:06:16.946Z,11.00
2018-03-11T04:09:04.577Z,11.00
2018-03-11T04:11:47.270Z,11.00
2018-03-11T04:23:15.548Z,11.00
2018-03-11T04:36:38.724Z,10.60
2018-03-11T04:39:33.150Z,10.60
2018-03-11T10:26:17.729Z,14.20
2018-03-11T10:29:24.281Z,15.00
2018-03-11T10:32:13.232Z,14.90
2018-03-11T10:35:28.051Z,14.90
2018-03-11T10:38:43.025Z,14.80
2018-03-11T10:41:41.047Z,14.90
2018-03-11T10:44:27.702Z,14.80
2018-03-11T10:47:19.028Z,14.70
2018-03-11T10:52:59.133Z,14.70
2018-03-11T10:55:43.515Z,14.70
2018-03-11T10:58:38.826Z,14.70
2018-03-11T11:01:24.832Z,14.70
2018-03-11T11:10:37.681Z,14.90
2018-03-11T11:13:20.787Z,15.00
2018-03-11T11:16:11.978Z,15.30
2018-03-11T11:21:56.322Z,15.40
2018-03-11T11:24:51.155Z,15.50
2018-03-11T11:35:24.480Z,15.60
2018-03-11T11:38:22.525Z,15.70
2018-03-11T11:41:22.018Z,15.80
2018-03-11T11:44:10.763Z,15.70
2018-03-11T11:50:25.381Z,15.70
2018-03-11T11:55:58.509Z,15.90
2018-03-11T11:58:53.297Z,15.90
2018-03-11T12:01:37.985Z,15.90
2018-03-11T12:04:26.948Z,16.00
2018-03-11T12:07:07.708Z,16.00
2018-03-11T12:09:53.820Z,16.10
2018-03-11T12:12:38.176Z,16.20
2018-03-11T12:18:04.511Z,16.10
2018-03-11T12:20:45.906Z,16.40
2018-03-11T12:23:41.936Z,16.20
2018-03-11T12:26:26.857Z,16.10
2018-03-11T12:47:37.200Z,16.30
2018-03-11T12:56:43.094Z,16.30
2018-03-11T12:59:44.972Z,16.30
2018-03-11T13:03:01.645Z,16.30
2018-03-11T13:05:45.289Z,16.30
2018-03-11T13:08:26.277Z,16.40
2018-03-11T13:11:15.978Z,16.50
2018-03-11T13:14:03.007Z,16.50
2018-03-11T13:17:06.831Z,16.30
2018-03-11T13:20:02.414Z,16.40
2018-03-11T13:25:46.893Z,16.30
2018-03-11T13:28:48.772Z,16.30
2018-03-11T13:31:38.246Z,16.30
2018-03-11T14:20:36.788Z,16.80
2018-03-11T14:23:22.374Z,16.60
2018-03-11T14:33:39.054Z,16.50
2018-03-11T14:48:09.703Z,16.60
2018-03-11T14:50:54.211Z,16.40
2018-03-11T14:53:50.025Z,16.40
2018-03-11T14:56:39.894Z,16.40
2018-03-11T14:59:42.056Z,16.40
2018-03-11T15:02:24.513Z,16.40
2018-03-11T15:08:02.613Z,16.50
2018-03-11T15:10:53.423Z,16.50
2018-03-11T15:16:31.518Z,16.50
2018-03-11T15:25:11.457Z,16.20
2018-03-11T15:27:54.979Z,16.10
2018-03-11T15:36:32.522Z,16.30
2018-03-11T15:39:46.862Z,16.40
2018-03-11T15:46:41.756Z,16.40
2018-03-11T15:49:34.000Z,16.40
2018-03-11T15:52:39.052Z,16.40
2018-03-11T15:55:38.651Z,16.50
